createdAt,value
2018-09-19T00:02:18.076Z,12.80
2018-09-19T00:04:46.137Z,12.83
2018-09-19T00:07:14.220Z,13.17
2018-09-19T00:09:42.297Z,12.20
2018-09-19T00:12:10.376Z,12.70
2018-09-19T00:14:38.454Z,12.40
2018-09-19T00:17:06.510Z,12.90
2018-09-19T00:19:34.625Z,12.53
2018-09-19T00:22:02.753Z,12.90
2018-09-19T00:24:30.816Z,12.53
2018-09-19T00:26:58.872Z,13.23
2018-09-19T00:29:26.975Z,12.77
2018-09-19T00:31:55.047Z,12.90
2018-09-19T00:34:23.136Z,13.17
2018-09-19T00:36:51.232Z,13.00
2018-09-19T00:39:19.296Z,13.77
2018-09-19T00:41:47.356Z,13.27
2018-09-19T00:44:15.448Z,12.73
2018-09-19T00:46:43.496Z,13.83
2018-09-19T00:49:11.561Z,13.60
2018-09-19T00:51:39.652Z,12.53
2018-09-19T00:54:07.757Z,13.37
2018-09-19T00:56:35.851Z,13.67
2018-09-19T00:59:03.974Z,13.97
2018-09-19T01:01:32.045Z,14.17
2018-09-19T01:04:00.128Z,14.00
2018-09-19T01:06:28.226Z,14.13
2018-09-19T01:08:56.302Z,14.20
2018-09-19T01:11:24.452Z,13.10
2018-09-19T01:13:52.596Z,13.43
2018-09-19T01:16:20.625Z,13.00
2018-09-19T01:18:48.706Z,13.73
2018-09-19T01:21:16.787Z,13.70
2018-09-19T01:23:44.881Z,14.10
2018-09-19T01:26:12.958Z,13.93
2018-09-19T01:28:41.039Z,14.20
2018-09-19T01:31:09.133Z,13.70
2018-09-19T01:33:37.225Z,13.80
2018-09-19T01:36:05.324Z,13.07
2018-09-19T01:38:33.381Z,13.70
2018-09-19T01:41:01.424Z,13.50
2018-09-19T01:43:29.484Z,13.40
2018-09-19T01:45:57.554Z,12.53
2018-09-19T01:48:25.609Z,13.93
2018-09-19T01:50:53.701Z,13.43
2018-09-19T01:53:21.817Z,13.27
2018-09-19T01:55:49.857Z,13.50
2018-09-19T01:58:17.932Z,13.57
2018-09-19T02:00:46.000Z,13.37
2018-09-19T02:03:14.077Z,12.73
2018-09-19T02:05:42.160Z,12.70
2018-09-19T02:08:10.240Z,13.43
2018-09-19T02:10:38.312Z,13.13
2018-09-19T02:13:06.414Z,13.53
2018-09-19T02:15:34.690Z,13.77
2018-09-19T02:18:02.765Z,13.90
2018-09-19T02:20:30.953Z,13.87
2018-09-19T02:22:59.049Z,13.10
2018-09-19T02:25:27.116Z,12.80
2018-09-19T02:27:55.384Z,12.83
2018-09-19T02:30:23.467Z,13.50
2018-09-19T02:32:51.650Z,12.90
2018-09-19T02:35:19.732Z,13.37
2018-09-19T02:37:47.905Z,13.00
2018-09-19T02:40:16.124Z,13.50
2018-09-19T02:42:44.430Z,13.73
2018-09-19T02:45:12.604Z,13.33
2018-09-19T02:47:40.685Z,13.37
2018-09-19T02:50:08.795Z,13.40
2018-09-19T02:52:36.862Z,13.30
2018-09-19T02:55:04.970Z,14.20
2018-09-19T02:57:33.049Z,13.50
2018-09-19T03:00:01.173Z,13.77
2018-09-19T03:02:29.237Z,13.70
2018-09-19T03:04:57.326Z,13.83
2018-09-19T03:07:25.393Z,14.93
2018-09-19T03:09:53.519Z,13.57
2018-09-19T03:12:21.607Z,13.77
2018-09-19T03:14:49.686Z,13.77
2018-09-19T03:17:17.793Z,13.30
2018-09-19T03:19:45.867Z,13.70
2018-09-19T03:22:13.920Z,13.50
2018-09-19T03:24:41.990Z,13.27
2018-09-19T03:27:10.077Z,14.20
2018-09-19T03:29:38.192Z,13.97
2018-09-19T03:32:06.286Z,14.27
2018-09-19T03:34:34.386Z,13.80
2018-09-19T03:37:02.528Z,13.33
2018-09-19T03:39:30.576Z,13.90
2018-09-19T03:41:58.654Z,14.03
2018-09-19T03:44:26.715Z,13.90
2018-09-19T03:46:54.853Z,13.87
2018-09-19T03:49:22.943Z,14.20
2018-09-19T03:51:50.997Z,13.70
2018-09-19T03:54:19.061Z,14.07
2018-09-19T03:56:47.196Z,13.77
2018-09-19T03:59:15.291Z,13.97
2018-09-19T04:01:43.369Z,13.73
2018-09-19T04:04:11.432Z,13.53
2018-09-19T04:06:39.543Z,13.73
2018-09-19T04:09:10.343Z,13.87
2018-09-19T04:11:38.451Z,14.03
2018-09-19T04:14:06.666Z,16.33
2018-09-19T04:16:34.733Z,14.57
2018-09-19T04:19:02.820Z,14.37
2018-09-19T04:21:30.986Z,14.03
2018-09-19T04:23:59.093Z,14.00
2018-09-19T04:26:27.186Z,14.80
2018-09-19T04:28:55.256Z,14.40
2018-09-19T04:31:23.318Z,14.23
2018-09-19T04:33:51.424Z,14.17
2018-09-19T04:36:19.471Z,15.17
2018-09-19T04:38:47.545Z,14.17
2018-09-19T04:41:15.624Z,14.73
2018-09-19T04:43:43.697Z,15.30
2018-09-19T04:46:11.772Z,15.53
2018-09-19T04:48:39.813Z,15.03
2018-09-19T04:51:08.027Z,14.53
2018-09-19T04:53:36.207Z,14.30
2018-09-19T04:56:04.293Z,14.07
2018-09-19T04:58:32.409Z,13.83
2018-09-19T05:01:00.527Z,14.53
2018-09-19T05:03:28.580Z,13.83
2018-09-19T05:05:56.654Z,14.43
2018-09-19T05:08:24.725Z,14.87
2018-09-19T05:10:52.868Z,14.67
2018-09-19T05:13:20.954Z,13.80
2018-09-19T05:15:49.047Z,14.17
2018-09-19T05:18:17.185Z,14.63
2018-09-19T05:20:45.274Z,14.50
2018-09-19T05:23:13.366Z,14.53
2018-09-19T05:25:41.487Z,15.60
2018-09-19T05:28:09.607Z,16.27
2018-09-19T05:30:37.725Z,14.70
2018-09-19T05:33:05.806Z,14.43
2018-09-19T05:35:33.917Z,14.47
2018-09-19T05:38:02.085Z,15.07
2018-09-19T05:40:30.169Z,15.37
2018-09-19T05:42:58.300Z,14.53
2018-09-19T05:45:26.729Z,14.17
2018-09-19T05:47:55.201Z,14.60
2018-09-19T05:50:23.289Z,14.20
2018-09-19T05:52:51.381Z,13.80
2018-09-19T05:55:19.502Z,14.87
2018-09-19T05:57:47.568Z,14.03
2018-09-19T06:00:15.671Z,13.67
2018-09-19T06:02:43.734Z,13.60
2018-09-19T06:05:11.840Z,13.10
2018-09-19T06:07:39.905Z,13.40
2018-09-19T06:10:08.029Z,16.90
2018-09-19T06:12:36.176Z,13.70
2018-09-19T06:15:10.986Z,13.53
2018-09-19T06:17:39.078Z,13.10
2018-09-19T06:20:07.191Z,12.90
2018-09-19T06:22:35.256Z,13.00
2018-09-19T06:25:03.356Z,13.23
2018-09-19T06:27:31.443Z,12.73
2018-09-19T06:29:59.549Z,12.67
2018-09-19T06:32:27.653Z,13.40
2018-09-19T06:34:55.715Z,12.53
2018-09-19T06:37:23.770Z,13.13
2018-09-19T06:39:51.853Z,13.13
2018-09-19T06:42:19.930Z,12.60
2018-09-19T06:44:48.006Z,12.57
2018-09-19T06:47:16.134Z,12.50
2018-09-19T06:49:44.196Z,12.70
2018-09-19T06:52:12.294Z,14.50
2018-09-19T06:54:40.384Z,14.50
2018-09-19T06:57:08.490Z,13.93
2018-09-19T06:59:36.761Z,13.23
2018-09-19T07:02:04.750Z,12.13
2018-09-19T07:04:32.877Z,12.77
2018-09-19T07:07:00.973Z,12.17
2018-09-19T07:09:29.078Z,12.73
2018-09-19T07:11:57.176Z,29.17
2018-09-19T07:14:25.309Z,19.17
2018-09-19T07:16:53.417Z,13.33
2018-09-19T07:19:21.535Z,13.20
2018-09-19T07:21:49.654Z,13.27
2018-09-19T07:24:17.728Z,12.63
2018-09-19T07:26:45.793Z,12.40
2018-09-19T07:29:13.887Z,11.87
2018-09-19T07:31:42.167Z,11.80
2018-09-19T07:34:10.256Z,11.90
2018-09-19T07:36:38.481Z,11.93
2018-09-19T07:39:09.028Z,11.73
2018-09-19T07:41:37.148Z,11.93
2018-09-19T07:44:05.254Z,11.67
2018-09-19T07:46:33.420Z,11.87
2018-09-19T07:49:01.512Z,11.80
2018-09-19T07:51:29.780Z,12.10
2018-09-19T07:53:57.885Z,13.10
2018-09-19T07:56:25.976Z,12.30
2018-09-19T07:58:54.104Z,11.60
2018-09-19T08:01:22.294Z,11.50
2018-09-19T08:03:50.321Z,11.67
2018-09-19T08:06:18.371Z,11.53
2018-09-19T08:08:46.452Z,10.93
2018-09-19T08:11:14.524Z,10.27
2018-09-19T08:13:42.595Z,10.53
2018-09-19T08:16:10.668Z,10.20
2018-09-19T08:18:38.751Z,11.23
2018-09-19T08:21:06.980Z,10.33
2018-09-19T08:23:35.051Z,10.00
2018-09-19T08:26:03.119Z,10.40
2018-09-19T08:28:31.190Z,11.80
2018-09-19T08:30:59.265Z,10.90
2018-09-19T08:33:27.349Z,9.63
2018-09-19T08:35:55.406Z,9.40
2018-09-19T08:38:23.480Z,9.53
2018-09-19T08:40:51.550Z,9.53
2018-09-19T08:43:19.611Z,8.93
2018-09-19T08:45:47.960Z,8.30
2018-09-19T08:48:16.065Z,8.47
2018-09-19T08:50:44.208Z,9.47
2018-09-19T08:53:13.436Z,7.73
2018-09-19T08:55:41.905Z,7.93
2018-09-19T08:58:16.821Z,8.10
2018-09-19T09:00:44.912Z,7.57
2018-09-19T09:03:12.999Z,7.43
2018-09-19T09:05:41.052Z,6.73
2018-09-19T09:08:09.441Z,7.40
2018-09-19T09:10:37.533Z,6.83
2018-09-19T09:13:05.700Z,6.60
2018-09-19T09:15:33.764Z,6.60
2018-09-19T09:18:01.925Z,6.83
2018-09-19T09:20:30.021Z,6.30
2018-09-19T09:22:58.128Z,6.63
2018-09-19T09:25:26.245Z,6.87
2018-09-19T09:27:55.364Z,6.70
2018-09-19T09:30:23.440Z,8.07
2018-09-19T09:32:51.523Z,7.10
2018-09-19T09:35:19.576Z,6.90
2018-09-19T09:37:47.674Z,6.23
2018-09-19T09:40:15.753Z,5.90
2018-09-19T09:42:43.927Z,6.53
2018-09-19T09:45:11.964Z,6.10
2018-09-19T09:47:40.055Z,5.93
2018-09-19T09:50:08.167Z,5.90
2018-09-19T09:52:36.263Z,5.50
2018-09-19T09:55:04.362Z,6.00
2018-09-19T09:57:32.423Z,5.97
2018-09-19T10:00:00.488Z,6.93
2018-09-19T10:02:28.601Z,6.30
2018-09-19T10:04:56.673Z,6.83
2018-09-19T10:07:24.733Z,7.83
2018-09-19T10:09:52.852Z,7.93
2018-09-19T10:12:20.957Z,7.50
2018-09-19T10:14:49.068Z,8.57
2018-09-19T10:17:17.153Z,13.33
2018-09-19T10:19:45.257Z,6.93
2018-09-19T10:22:13.349Z,6.10
2018-09-19T10:24:41.465Z,6.17
2018-09-19T10:27:09.556Z,5.90
2018-09-19T10:29:37.717Z,6.00
2018-09-19T10:32:05.785Z,5.87
2018-09-19T10:34:33.897Z,5.70
2018-09-19T10:37:01.972Z,5.43
2018-09-19T10:39:30.049Z,5.70
2018-09-19T10:41:58.115Z,5.30
2018-09-19T10:44:26.181Z,5.10
2018-09-19T10:46:54.289Z,5.37
2018-09-19T10:49:22.433Z,5.27
2018-09-19T10:51:50.466Z,5.37
2018-09-19T10:54:18.576Z,4.87
2018-09-19T10:56:46.650Z,4.60
2018-09-19T10:59:14.722Z,4.43
2018-09-19T11:01:42.788Z,5.43
2018-09-19T11:04:10.973Z,4.80
2018-09-19T11:06:39.045Z,7.23
2018-09-19T11:09:08.309Z,4.57
2018-09-19T11:11:36.447Z,5.13
2018-09-19T11:14:04.567Z,5.20
2018-09-19T11:16:32.733Z,4.57
2018-09-19T11:19:00.781Z,4.60
2018-09-19T11:21:28.954Z,4.80
2018-09-19T11:23:57.032Z,4.90
2018-09-19T11:26:25.170Z,4.63
2018-09-19T11:28:53.218Z,4.67
2018-09-19T11:31:21.315Z,4.57
2018-09-19T11:33:49.402Z,4.53
2018-09-19T11:36:17.537Z,4.50
2018-09-19T11:38:45.598Z,4.80
2018-09-19T11:41:13.727Z,4.65
2018-09-19T11:43:41.798Z,4.62
2018-09-19T11:46:09.889Z,4.50
2018-09-19T11:48:38.462Z,5.17
2018-09-19T11:51:06.646Z,4.67
2018-09-19T11:53:34.717Z,4.07
2018-09-19T11:56:02.776Z,4.53
2018-09-19T11:58:31.114Z,4.50
2018-09-19T12:00:59.614Z,4.50
2018-09-19T12:03:28.172Z,4.62
2018-09-19T12:05:56.244Z,4.50
2018-09-19T12:08:24.297Z,4.20
2018-09-19T12:10:52.349Z,7.60
2018-09-19T12:13:20.417Z,6.80
2018-09-19T12:15:48.488Z,4.67
2018-09-19T12:18:16.553Z,4.33
2018-09-19T12:20:44.641Z,5.40
2018-09-19T12:23:12.753Z,4.62
2018-09-19T12:25:41.660Z,4.35
2018-09-19T12:28:09.798Z,4.83
2018-09-19T12:30:37.913Z,4.28
2018-09-19T12:33:05.997Z,4.62
2018-09-19T12:35:34.050Z,4.67
2018-09-19T12:38:02.132Z,4.83
2018-09-19T12:40:30.256Z,5.30
2018-09-19T12:42:58.366Z,4.83
2018-09-19T12:45:26.445Z,4.37
2018-09-19T12:47:54.545Z,4.28
2018-09-19T12:50:22.630Z,4.72
2018-09-19T12:52:50.721Z,4.73
2018-09-19T12:55:18.786Z,4.53
2018-09-19T12:57:46.880Z,4.63
2018-09-19T13:00:14.982Z,4.70
2018-09-19T13:02:43.078Z,4.97
2018-09-19T13:05:11.147Z,5.07
2018-09-19T13:07:39.237Z,5.20
2018-09-19T13:10:07.316Z,5.17
2018-09-19T13:12:35.377Z,4.93
2018-09-19T13:15:03.457Z,6.00
2018-09-19T13:17:31.528Z,5.50
2018-09-19T13:19:59.697Z,5.43
2018-09-19T13:22:27.760Z,5.37
2018-09-19T13:24:55.833Z,5.70
2018-09-19T13:27:23.955Z,5.50
2018-09-19T13:29:52.070Z,5.67
2018-09-19T13:32:20.122Z,5.40
2018-09-19T13:34:48.272Z,5.50
2018-09-19T13:37:16.333Z,6.20
2018-09-19T13:39:44.469Z,5.50
2018-09-19T13:42:12.597Z,5.57
2018-09-19T13:44:40.680Z,5.50
2018-09-19T13:47:08.793Z,5.80
2018-09-19T13:49:44.210Z,5.80
2018-09-19T13:52:12.269Z,5.97
2018-09-19T13:54:46.929Z,6.07
2018-09-19T13:57:15.000Z,17.43
2018-09-19T13:59:43.086Z,6.37
2018-09-19T14:02:11.153Z,5.90
2018-09-19T14:04:39.230Z,5.67
2018-09-19T14:07:07.580Z,5.87
2018-09-19T14:09:35.649Z,5.90
2018-09-19T14:12:03.800Z,6.20
2018-09-19T14:14:31.957Z,6.17
2018-09-19T14:17:00.017Z,6.27
2018-09-19T14:19:28.099Z,6.27
2018-09-19T14:21:56.268Z,6.20
2018-09-19T14:24:24.361Z,6.17
2018-09-19T14:26:52.438Z,6.57
2018-09-19T14:29:20.585Z,6.90
2018-09-19T14:31:48.656Z,9.93
2018-09-19T14:34:16.752Z,7.20
2018-09-19T14:36:44.820Z,7.77
2018-09-19T14:39:12.892Z,6.67
2018-09-19T14:41:40.980Z,6.63
2018-09-19T14:44:09.069Z,7.13
2018-09-19T14:46:37.181Z,6.90
2018-09-19T14:49:06.010Z,7.50
2018-09-19T14:51:34.065Z,7.00
2018-09-19T14:54:02.126Z,7.67
2018-09-19T14:56:30.225Z,7.13
2018-09-19T14:58:58.324Z,7.67
2018-09-19T15:01:26.420Z,6.60
2018-09-19T15:03:54.505Z,6.77
2018-09-19T15:06:22.560Z,6.80
2018-09-19T15:08:50.673Z,6.83
2018-09-19T15:11:18.753Z,7.40
2018-09-19T15:13:46.856Z,6.43
2018-09-19T15:16:14.949Z,6.37
2018-09-19T15:18:43.037Z,6.30
2018-09-19T15:21:11.140Z,6.20
2018-09-19T15:23:39.242Z,6.10
2018-09-19T15:26:07.621Z,5.87
2018-09-19T15:28:35.720Z,9.60
2018-09-19T15:31:03.857Z,6.80
2018-09-19T15:33:31.933Z,6.30
2018-09-19T15:36:00.049Z,6.07
2018-09-19T15:38:28.144Z,6.00
2018-09-19T15:40:56.161Z,6.60
2018-09-19T15:43:24.238Z,6.87
2018-09-19T15:45:52.321Z,6.13
2018-09-19T15:48:20.422Z,6.07
2018-09-19T15:50:48.488Z,6.27
2018-09-19T15:53:16.607Z,6.70
2018-09-19T15:55:44.721Z,6.10
2018-09-19T15:58:12.785Z,5.80
2018-09-19T16:00:40.870Z,5.87
2018-09-19T16:03:09.141Z,5.80
2018-09-19T16:05:37.229Z,5.80
2018-09-19T16:08:05.303Z,6.67
2018-09-19T16:10:33.605Z,9.00
2018-09-19T16:13:01.681Z,7.60
2018-09-19T16:15:29.821Z,6.90
2018-09-19T16:17:58.221Z,6.17
2018-09-19T16:20:26.288Z,6.67
2018-09-19T16:22:54.339Z,7.50
2018-09-19T16:25:22.432Z,6.77
2018-09-19T16:27:50.486Z,6.83
2018-09-19T16:30:18.576Z,6.17
2018-09-19T16:32:46.646Z,6.30
2018-09-19T16:35:14.701Z,7.37
2018-09-19T16:37:42.755Z,6.80
2018-09-19T16:40:10.944Z,6.77
2018-09-19T16:42:39.057Z,6.57
2018-09-19T16:45:07.137Z,7.10
2018-09-19T16:47:35.349Z,6.70
2018-09-19T16:50:03.455Z,6.77
2018-09-19T16:52:31.517Z,6.93
2018-09-19T16:54:59.626Z,7.03
2018-09-19T16:57:27.723Z,7.50
2018-09-19T16:59:55.917Z,7.40
2018-09-19T17:02:23.993Z,6.53
2018-09-19T17:04:52.074Z,7.20
2018-09-19T17:07:20.457Z,7.03
2018-09-19T17:09:48.590Z,7.30
2018-09-19T17:12:16.641Z,6.93
2018-09-19T17:14:44.697Z,7.00
2018-09-19T17:17:12.763Z,7.70
2018-09-19T17:19:40.828Z,7.90
2018-09-19T17:22:08.915Z,8.27
2018-09-19T17:24:37.111Z,8.10
2018-09-19T17:27:05.194Z,11.27
2018-09-19T17:29:34.753Z,11.87
2018-09-19T17:32:02.927Z,9.33
2018-09-19T17:34:31.321Z,8.03
2018-09-19T17:36:59.500Z,9.00
2018-09-19T17:39:27.600Z,10.93
2018-09-19T17:42:02.513Z,8.50
2018-09-19T17:44:30.704Z,7.90
2018-09-19T17:46:58.805Z,8.47
2018-09-19T17:49:26.893Z,8.20
2018-09-19T17:51:55.111Z,9.10
2018-09-19T17:54:23.601Z,9.43
2018-09-19T17:56:52.731Z,9.03
2018-09-19T17:59:20.869Z,9.40
2018-09-19T18:01:49.692Z,8.77
2018-09-19T18:04:17.841Z,8.97
2018-09-19T18:06:45.993Z,9.27
2018-09-19T18:09:14.106Z,8.47
2018-09-19T18:11:42.200Z,9.50
2018-09-19T18:14:10.341Z,8.67
2018-09-19T18:16:38.424Z,8.87
2018-09-19T18:19:06.581Z,12.03
2018-09-19T18:21:34.733Z,13.93
2018-09-19T18:24:02.877Z,11.07
2018-09-19T18:26:30.956Z,9.47
2018-09-19T18:28:59.050Z,9.17
2018-09-19T18:31:27.132Z,9.23
2018-09-19T18:33:55.411Z,9.27
2018-09-19T18:36:23.489Z,9.60
2018-09-19T18:38:52.861Z,9.70
2018-09-19T18:41:20.924Z,10.30
2018-09-19T18:43:49.033Z,11.43
2018-09-19T18:46:17.175Z,13.23
2018-09-19T18:48:45.235Z,11.20
2018-09-19T18:51:13.287Z,10.53
2018-09-19T18:53:41.446Z,10.83
2018-09-19T18:56:09.612Z,10.87
2018-09-19T18:58:37.672Z,10.30
2018-09-19T19:01:05.766Z,10.23
2018-09-19T19:03:33.831Z,10.70
2018-09-19T19:06:01.946Z,11.47
2018-09-19T19:08:29.994Z,11.40
2018-09-19T19:10:58.109Z,11.13
2018-09-19T19:13:26.214Z,11.07
2018-09-19T19:15:54.309Z,15.37
2018-09-19T19:18:22.381Z,20.70
2018-09-19T19:20:50.501Z,13.00
2018-09-19T19:23:18.632Z,10.97
2018-09-19T19:25:46.751Z,10.50
2018-09-19T19:28:14.916Z,11.00
2018-09-19T19:30:43.138Z,11.10
2018-09-19T19:33:11.072Z,12.00
2018-09-19T19:35:39.199Z,11.17
2018-09-19T19:38:07.319Z,11.73
2018-09-19T19:40:35.358Z,11.10
2018-09-19T19:43:03.426Z,11.03
2018-09-19T19:45:31.506Z,11.23
2018-09-19T19:47:59.585Z,11.87
2018-09-19T19:50:27.635Z,11.87
2018-09-19T19:52:55.775Z,13.37
2018-09-19T19:55:23.849Z,16.07
2018-09-19T19:57:51.932Z,11.80
2018-09-19T20:00:19.984Z,11.67
2018-09-19T20:02:48.063Z,11.37
2018-09-19T20:05:16.137Z,11.73
2018-09-19T20:07:44.201Z,11.53
2018-09-19T20:10:12.598Z,12.53
2018-09-19T20:12:40.744Z,12.23
2018-09-19T20:15:08.825Z,11.70
2018-09-19T20:17:36.916Z,12.10
2018-09-19T20:20:05.042Z,11.30
2018-09-19T20:22:33.141Z,11.60
2018-09-19T20:25:01.216Z,11.73
2018-09-19T20:27:29.302Z,11.27
2018-09-19T20:29:57.529Z,11.07
2018-09-19T20:32:25.572Z,11.20
2018-09-19T20:34:53.632Z,11.17
2018-09-19T20:37:21.719Z,11.40
2018-09-19T20:39:49.789Z,10.90
2018-09-19T20:42:18.124Z,11.10
2018-09-19T20:44:46.419Z,11.20
2018-09-19T20:47:14.500Z,11.20
2018-09-19T20:49:42.565Z,11.73
2018-09-19T20:52:10.764Z,11.47
2018-09-19T20:54:38.912Z,11.50
2018-09-19T20:57:07.141Z,11.43
2018-09-19T20:59:35.196Z,11.73
2018-09-19T21:02:03.316Z,11.47
2018-09-19T21:04:31.499Z,12.00
2018-09-19T21:06:59.481Z,11.67
2018-09-19T21:09:27.561Z,11.50
2018-09-19T21:11:55.617Z,11.83
2018-09-19T21:14:23.692Z,12.43
2018-09-19T21:16:51.804Z,11.77
2018-09-19T21:19:19.950Z,11.70
2018-09-19T21:21:48.077Z,11.80
2018-09-19T21:24:16.084Z,11.77
2018-09-19T21:26:44.148Z,11.67
2018-09-19T21:29:12.210Z,11.97
2018-09-19T21:31:40.277Z,11.53
2018-09-19T21:34:08.432Z,11.47
2018-09-19T21:36:36.523Z,11.80
2018-09-19T21:39:07.665Z,12.17
2018-09-19T21:41:35.753Z,11.47
2018-09-19T21:44:03.810Z,11.90
2018-09-19T21:46:31.882Z,11.90
2018-09-19T21:49:00.009Z,11.63
2018-09-19T21:51:28.048Z,12.17
2018-09-19T21:53:56.117Z,11.67
2018-09-19T21:56:24.269Z,11.77
2018-09-19T21:58:52.336Z,11.57
2018-09-19T22:01:25.786Z,11.40
2018-09-19T22:03:53.850Z,12.03
2018-09-19T22:06:21.989Z,12.10
2018-09-19T22:08:50.153Z,12.17
2018-09-19T22:11:18.217Z,11.90
2018-09-19T22:13:46.280Z,11.90
2018-09-19T22:16:14.360Z,10.63
2018-09-19T22:18:42.428Z,11.13
2018-09-19T22:21:10.503Z,10.90
2018-09-19T22:23:38.577Z,10.90
2018-09-19T22:26:06.653Z,10.87
2018-09-19T22:28:34.723Z,10.70
2018-09-19T22:31:02.784Z,10.10
2018-09-19T22:33:30.864Z,10.87
2018-09-19T22:35:58.920Z,10.60
2018-09-19T22:38:27.007Z,10.20
2018-09-19T22:40:55.073Z,10.63
2018-09-19T22:43:23.121Z,10.13
2018-09-19T22:45:51.202Z,10.17
2018-09-19T22:48:19.367Z,10.43
2018-09-19T22:50:47.462Z,10.50
2018-09-19T22:53:15.557Z,9.83
2018-09-19T22:55:43.761Z,10.97
2018-09-19T22:58:11.825Z,10.13
2018-09-19T23:00:39.897Z,10.47
2018-09-19T23:03:07.949Z,9.70
2018-09-19T23:05:36.010Z,10.03
2018-09-19T23:08:04.098Z,10.30
2018-09-19T23:10:32.160Z,9.73
2018-09-19T23:13:00.258Z,10.00
2018-09-19T23:15:28.335Z,9.90
2018-09-19T23:17:56.397Z,10.30
2018-09-19T23:20:24.465Z,9.90
2018-09-19T23:22:52.520Z,9.97
2018-09-19T23:25:20.602Z,10.17
2018-09-19T23:27:48.674Z,10.43
2018-09-19T23:30:16.833Z,9.50
2018-09-19T23:32:44.939Z,9.40
2018-09-19T23:35:12.986Z,9.70
2018-09-19T23:37:41.053Z,9.37
2018-09-19T23:40:09.104Z,9.40
2018-09-19T23:42:37.160Z,8.87
2018-09-19T23:45:05.721Z,9.40
2018-09-19T23:47:33.789Z,9.60
2018-09-19T23:50:01.877Z,9.23
2018-09-19T23:52:29.958Z,9.60
2018-09-19T23:54:58.025Z,9.17
2018-09-19T23:57:26.109Z,9.53
2018-09-19T23:59:54.186Z,9.40
